createdAt,value
2023-05-21T00:00:53.880Z,15.24
2023-05-21T00:02:14.579Z,15.21
2023-05-21T00:03:17.731Z,15.19
2023-05-21T00:04:20.555Z,15.18
2023-05-21T00:05:24.108Z,15.17
2023-05-21T00:06:27.743Z,15.16
2023-05-21T00:07:31.623Z,15.15
2023-05-21T00:08:34.413Z,15.14
2023-05-21T00:09:40.401Z,15.14
2023-05-21T00:10:43.254Z,15.13
2023-05-21T00:11:45.971Z,15.11
2023-05-21T00:12:48.738Z,15.10
2023-05-21T00:13:51.489Z,15.08
2023-05-21T00:14:54.233Z,15.06
2023-05-21T00:15:56.939Z,15.06
2023-05-21T00:16:59.780Z,15.04
2023-05-21T00:18:02.745Z,15.04
2023-05-21T00:19:06.212Z,15.03
2023-05-21T00:20:09.361Z,15.03
2023-05-21T00:21:12.341Z,15.02
2023-05-21T00:22:16.033Z,15.02
2023-05-21T00:23:19.477Z,15.00
2023-05-21T00:24:22.231Z,14.99
2023-05-21T00:25:24.938Z,14.99
2023-05-21T00:26:27.715Z,14.98
2023-05-21T00:27:32.082Z,14.97
2023-05-21T00:28:34.955Z,14.96
2023-05-21T00:29:37.951Z,14.95
2023-05-21T00:30:41.056Z,14.94
2023-05-21T00:31:43.798Z,14.93
2023-05-21T00:32:46.727Z,14.92
2023-05-21T00:33:49.785Z,14.91
2023-05-21T00:34:52.529Z,14.90
2023-05-21T00:35:56.876Z,14.90
2023-05-21T00:36:59.604Z,14.89
2023-05-21T00:38:02.355Z,14.87
2023-05-21T00:39:05.792Z,14.87
2023-05-21T00:40:09.259Z,14.85
2023-05-21T00:41:12.031Z,14.84
2023-05-21T00:42:18.101Z,14.84
2023-05-21T00:43:26.087Z,14.81
2023-05-21T00:44:34.122Z,14.80
2023-05-21T00:45:37.552Z,14.80
2023-05-21T00:46:40.979Z,14.78
2023-05-21T00:47:44.255Z,14.78
2023-05-21T00:48:47.737Z,14.77
2023-05-21T00:49:52.964Z,14.76
2023-05-21T00:50:55.768Z,14.74
2023-05-21T00:52:01.457Z,14.73
2023-05-21T00:53:04.868Z,14.72
2023-05-21T00:54:08.402Z,14.72
2023-05-21T00:55:11.228Z,14.72
2023-05-21T00:56:14.112Z,14.71
2023-05-21T00:57:20.659Z,14.69
2023-05-21T00:58:23.687Z,14.68
2023-05-21T00:59:26.582Z,14.66
2023-05-21T01:00:29.606Z,14.64
2023-05-21T01:01:33.902Z,14.64
2023-05-21T01:02:37.490Z,14.63
2023-05-21T01:03:41.066Z,14.61
2023-05-21T01:04:46.818Z,14.59
2023-05-21T01:05:51.114Z,14.58
2023-05-21T01:06:56.212Z,14.57
2023-05-21T01:07:59.274Z,14.56
2023-05-21T01:09:04.426Z,14.55
2023-05-21T01:10:09.649Z,14.54
2023-05-21T01:11:12.851Z,14.54
2023-05-21T01:12:15.844Z,14.52
2023-05-21T01:13:20.664Z,14.52
2023-05-21T01:14:24.288Z,14.50
2023-05-21T01:15:27.575Z,14.49
2023-05-21T01:16:32.359Z,14.47
2023-05-21T01:17:35.701Z,14.46
2023-05-21T01:18:38.708Z,14.45
2023-05-21T01:19:44.497Z,14.44
2023-05-21T01:20:48.300Z,14.42
2023-05-21T01:21:56.831Z,14.42
2023-05-21T01:23:00.766Z,14.40
2023-05-21T01:24:05.641Z,14.39
2023-05-21T01:25:08.771Z,14.38
2023-05-21T01:26:12.996Z,14.37
2023-05-21T01:27:15.758Z,14.36
2023-05-21T01:28:18.533Z,14.35
2023-05-21T01:29:21.816Z,14.34
2023-05-21T01:32:01.489Z,14.30
2023-05-21T01:33:07.814Z,14.30
2023-05-21T01:34:12.309Z,14.29
2023-05-21T01:35:20.850Z,14.28
2023-05-21T01:36:26.274Z,14.27
2023-05-21T01:37:29.142Z,14.27
2023-05-21T01:38:31.881Z,14.26
2023-05-21T01:39:38.604Z,14.25
2023-05-21T01:40:53.304Z,14.24
2023-05-21T01:41:56.980Z,14.24
2023-05-21T01:42:59.775Z,14.23
2023-05-21T01:44:03.760Z,14.23
2023-05-21T01:45:08.006Z,14.22
2023-05-21T01:46:13.887Z,14.22
2023-05-21T01:47:17.906Z,14.21
2023-05-21T01:48:21.010Z,14.20
2023-05-21T01:49:24.026Z,14.18
2023-05-21T01:50:27.068Z,14.18
2023-05-21T01:51:30.200Z,14.16
2023-05-21T01:52:32.961Z,14.16
2023-05-21T01:53:35.838Z,14.14
2023-05-21T01:54:38.709Z,14.14
2023-05-21T01:55:42.032Z,14.13
2023-05-21T01:56:44.960Z,14.12
2023-05-21T01:57:47.781Z,14.10
2023-05-21T01:58:50.567Z,14.10
2023-05-21T01:59:53.494Z,14.08
2023-05-21T02:00:57.026Z,14.07
2023-05-21T02:01:59.896Z,14.06
2023-05-21T02:03:03.213Z,14.05
2023-05-21T02:04:06.176Z,14.04
2023-05-21T02:05:09.283Z,14.03
2023-05-21T02:06:12.042Z,14.02
2023-05-21T02:07:15.107Z,14.01
2023-05-21T02:08:19.704Z,14.01
2023-05-21T02:09:22.676Z,14.00
2023-05-21T02:10:25.497Z,14.00
2023-05-21T02:11:28.529Z,13.98
2023-05-21T02:12:31.304Z,13.98
2023-05-21T02:13:34.077Z,13.97
2023-05-21T02:14:39.159Z,13.98
2023-05-21T02:15:42.311Z,13.96
2023-05-21T02:16:45.175Z,13.96
2023-05-21T02:17:48.121Z,13.96
2023-05-21T02:18:57.424Z,13.96
2023-05-21T02:20:18.888Z,13.95
2023-05-21T02:21:21.736Z,13.95
2023-05-21T02:22:24.463Z,13.94
2023-05-21T02:23:27.245Z,13.94
2023-05-21T02:24:30.218Z,13.95
2023-05-21T02:25:33.122Z,13.95
2023-05-21T02:26:36.165Z,13.95
2023-05-21T02:27:39.467Z,13.95
2023-05-21T02:28:42.181Z,13.94
2023-05-21T02:29:44.987Z,13.94
2023-05-21T02:30:47.937Z,13.93
2023-05-21T02:31:51.371Z,13.93
2023-05-21T02:32:55.302Z,13.92
2023-05-21T02:33:58.174Z,13.92
2023-05-21T02:35:01.921Z,13.92
2023-05-21T02:36:05.064Z,13.90
2023-05-21T02:37:09.700Z,13.89
2023-05-21T02:38:13.692Z,13.89
2023-05-21T02:39:17.381Z,13.88
2023-05-21T02:40:20.138Z,13.88
2023-05-21T02:41:23.360Z,13.87
2023-05-21T02:42:26.290Z,13.87
2023-05-21T02:43:29.371Z,13.86
2023-05-21T02:44:32.204Z,13.86
2023-05-21T02:45:35.237Z,13.85
2023-05-21T02:46:38.276Z,13.85
2023-05-21T02:47:41.485Z,13.85
2023-05-21T02:48:44.447Z,13.85
2023-05-21T02:49:47.188Z,13.86
2023-05-21T02:50:50.459Z,13.86
2023-05-21T02:51:53.240Z,13.87
2023-05-21T02:52:56.097Z,13.87
2023-05-21T02:53:58.846Z,13.86
2023-05-21T02:55:02.598Z,13.87
2023-05-21T02:56:05.694Z,13.86
2023-05-21T02:57:08.604Z,13.86
2023-05-21T02:58:13.505Z,13.86
2023-05-21T02:59:16.467Z,13.86
2023-05-21T03:00:19.374Z,13.86
2023-05-21T03:01:22.261Z,13.86
2023-05-21T03:02:25.071Z,13.86
2023-05-21T03:03:28.229Z,13.86
2023-05-21T03:04:31.156Z,13.87
2023-05-21T03:05:34.001Z,13.88
2023-05-21T03:06:36.993Z,13.88
2023-05-21T03:07:39.791Z,13.88
2023-05-21T03:08:42.601Z,13.89
2023-05-21T03:09:45.662Z,13.91
2023-05-21T03:10:48.936Z,13.91
2023-05-21T03:11:51.896Z,13.92
2023-05-21T03:12:54.975Z,13.94
2023-05-21T03:13:58.356Z,13.94
2023-05-21T03:15:01.404Z,13.94
2023-05-21T03:16:04.268Z,13.95
2023-05-21T03:17:07.770Z,13.95
2023-05-21T03:18:11.808Z,13.96
2023-05-21T03:19:15.627Z,13.96
2023-05-21T03:20:19.040Z,13.95
2023-05-21T03:21:24.834Z,13.96
2023-05-21T03:22:27.844Z,13.96
2023-05-21T03:23:30.675Z,13.97
2023-05-21T03:24:33.615Z,13.97
2023-05-21T03:25:37.732Z,13.98
2023-05-21T03:26:40.869Z,13.99
2023-05-21T03:27:43.972Z,14.00
2023-05-21T03:28:59.265Z,14.02
2023-05-21T03:30:03.892Z,14.03
2023-05-21T03:31:08.426Z,14.06
2023-05-21T03:32:11.444Z,14.08
2023-05-21T03:33:14.269Z,14.10
2023-05-21T03:34:20.112Z,14.12
2023-05-21T03:35:23.797Z,14.14
2023-05-21T03:36:26.632Z,14.16
2023-05-21T03:37:29.337Z,14.18
2023-05-21T03:38:32.306Z,14.19
2023-05-21T03:39:35.520Z,14.20
2023-05-21T03:40:38.731Z,14.20
2023-05-21T03:41:41.780Z,14.22
2023-05-21T03:42:47.730Z,14.23
2023-05-21T03:43:50.787Z,14.24
2023-05-21T03:44:54.246Z,14.25
2023-05-21T03:46:12.156Z,14.28
2023-05-21T03:47:14.961Z,14.28
2023-05-21T03:48:18.215Z,14.30
2023-05-21T03:49:21.255Z,14.33
2023-05-21T03:50:25.391Z,14.34
2023-05-21T03:51:30.385Z,14.36
2023-05-21T03:52:33.584Z,14.38
2023-05-21T03:53:36.955Z,14.40
2023-05-21T03:54:39.918Z,14.41
2023-05-21T03:55:43.825Z,14.44
2023-05-21T03:56:46.527Z,14.47
2023-05-21T03:57:49.332Z,14.51
2023-05-21T03:58:52.823Z,14.55
2023-05-21T03:59:55.978Z,14.57
2023-05-21T04:00:59.040Z,14.62
2023-05-21T04:02:01.878Z,14.66
2023-05-21T04:03:04.715Z,14.69
2023-05-21T04:04:07.791Z,14.72
2023-05-21T04:05:10.761Z,14.75
2023-05-21T04:06:13.692Z,14.78
2023-05-21T04:07:19.223Z,14.82
2023-05-21T04:08:22.060Z,14.86
2023-05-21T04:09:24.844Z,14.91
2023-05-21T04:10:28.150Z,14.95
2023-05-21T04:11:31.543Z,14.99
2023-05-21T04:12:34.389Z,15.04
2023-05-21T04:13:37.209Z,15.09
2023-05-21T04:14:40.207Z,15.14
2023-05-21T04:15:44.585Z,15.18
2023-05-21T04:16:49.396Z,15.23
2023-05-21T04:17:52.442Z,15.27
2023-05-21T04:18:55.549Z,15.31
2023-05-21T04:19:58.808Z,15.34
2023-05-21T04:21:02.469Z,15.39
2023-05-21T04:22:05.606Z,15.43
2023-05-21T04:23:08.664Z,15.47
2023-05-21T04:24:11.757Z,15.52
2023-05-21T04:25:34.128Z,15.58
2023-05-21T04:26:38.173Z,15.63
2023-05-21T04:27:42.899Z,15.66
2023-05-21T04:28:46.044Z,15.72
2023-05-21T04:29:50.774Z,15.75
2023-05-21T04:30:53.746Z,15.79
2023-05-21T04:31:56.625Z,15.84
2023-05-21T04:33:00.376Z,15.88
2023-05-21T04:34:03.522Z,15.92
2023-05-21T04:35:06.613Z,15.98
2023-05-21T04:36:10.593Z,16.03
2023-05-21T04:37:13.817Z,16.08
2023-05-21T04:38:19.943Z,16.13
2023-05-21T04:39:22.895Z,16.18
2023-05-21T04:40:26.875Z,16.24
2023-05-21T04:41:29.760Z,16.29
2023-05-21T04:42:33.101Z,16.34
2023-05-21T04:43:36.793Z,16.39
2023-05-21T04:44:44.517Z,16.45
2023-05-21T04:45:47.677Z,16.50
2023-05-21T04:46:50.729Z,16.56
2023-05-21T04:47:53.780Z,16.62
2023-05-21T04:48:58.100Z,16.67
2023-05-21T04:50:01.940Z,16.73
2023-05-21T04:51:06.444Z,16.79
2023-05-21T04:52:09.157Z,16.85
2023-05-21T04:53:12.280Z,16.91
2023-05-21T04:54:15.596Z,16.97
2023-05-21T04:55:19.079Z,17.03
2023-05-21T04:56:22.382Z,17.09
2023-05-21T04:57:25.143Z,17.15
2023-05-21T04:58:28.640Z,17.22
2023-05-21T04:59:32.130Z,17.27
2023-05-21T05:00:37.781Z,17.34
2023-05-21T05:01:41.229Z,17.39
2023-05-21T05:02:44.203Z,17.45
2023-05-21T05:03:47.329Z,17.50
2023-05-21T05:04:50.261Z,17.56
2023-05-21T05:05:53.836Z,17.62
2023-05-21T05:06:56.584Z,17.69
2023-05-21T05:07:59.435Z,17.75
2023-05-21T05:09:02.267Z,17.82
2023-05-21T05:10:05.300Z,17.88
2023-05-21T05:11:08.689Z,17.95
2023-05-21T05:12:11.506Z,18.01
2023-05-21T05:13:14.357Z,18.08
2023-05-21T05:14:17.171Z,18.14
2023-05-21T05:15:20.232Z,18.20
2023-05-21T05:16:25.778Z,18.26
2023-05-21T05:17:32.059Z,18.34
2023-05-21T05:18:35.205Z,18.41
2023-05-21T05:19:38.212Z,18.47
2023-05-21T05:20:41.249Z,18.54
2023-05-21T05:21:44.124Z,18.60
2023-05-21T05:22:47.472Z,18.68
2023-05-21T05:23:50.321Z,18.74
2023-05-21T05:24:53.178Z,18.82
2023-05-21T05:25:56.156Z,18.91
2023-05-21T05:26:59.039Z,19.03
2023-05-21T05:28:01.863Z,19.19
2023-05-21T05:29:04.657Z,19.36
2023-05-21T05:30:07.776Z,19.52
2023-05-21T05:31:11.475Z,19.64
2023-05-21T05:32:14.330Z,19.74
2023-05-21T05:33:17.448Z,19.82
2023-05-21T05:34:20.205Z,19.87
2023-05-21T05:35:25.392Z,19.93
2023-05-21T05:36:28.513Z,19.96
2023-05-21T05:37:32.818Z,19.97
2023-05-21T05:38:36.102Z,20.01
2023-05-21T05:39:39.062Z,20.04
2023-05-21T05:40:41.880Z,20.07
2023-05-21T05:41:44.754Z,20.10
2023-05-21T05:42:49.434Z,20.12
2023-05-21T05:43:52.587Z,20.15
2023-05-21T05:44:57.056Z,20.18
2023-05-21T05:46:00.492Z,20.20
2023-05-21T05:47:03.406Z,20.15
2023-05-21T05:48:06.387Z,20.08
2023-05-21T05:49:09.214Z,19.98
2023-05-21T05:50:12.117Z,19.87
2023-05-21T05:51:15.484Z,19.79
2023-05-21T05:52:18.362Z,19.72
2023-05-21T05:53:21.105Z,19.64
2023-05-21T05:54:23.916Z,19.58
2023-05-21T05:55:26.930Z,19.54
2023-05-21T05:56:29.847Z,19.50
2023-05-21T05:57:32.636Z,19.48
2023-05-21T05:58:37.758Z,19.45
2023-05-21T05:59:46.976Z,19.44
2023-05-21T06:00:51.160Z,19.43
2023-05-21T06:01:53.995Z,19.43
2023-05-21T06:02:57.056Z,19.47
2023-05-21T06:04:00.001Z,19.56
2023-05-21T06:05:03.349Z,19.67
2023-05-21T06:06:06.378Z,19.78
2023-05-21T06:07:09.576Z,19.89
2023-05-21T06:08:12.426Z,20.00
2023-05-21T06:09:15.224Z,20.10
2023-05-21T06:10:18.774Z,20.18
2023-05-21T06:11:22.788Z,20.28
2023-05-21T06:12:25.748Z,20.36
2023-05-21T06:13:28.532Z,20.45
2023-05-21T06:14:31.392Z,20.52
2023-05-21T06:15:34.384Z,20.59
2023-05-21T06:16:37.507Z,20.65
2023-05-21T06:17:41.007Z,20.62
2023-05-21T06:18:43.971Z,20.57
2023-05-21T06:19:47.025Z,20.51
2023-05-21T06:20:50.359Z,20.46
2023-05-21T06:21:53.528Z,20.41
2023-05-21T06:22:56.400Z,20.37
2023-05-21T06:23:59.513Z,20.33
2023-05-21T06:25:04.928Z,20.31
2023-05-21T06:26:07.860Z,20.32
2023-05-21T06:27:11.069Z,20.34
2023-05-21T06:28:14.507Z,20.34
2023-05-21T06:29:17.649Z,20.34
2023-05-21T06:30:22.118Z,20.32
2023-05-21T06:31:25.004Z,20.32
2023-05-21T06:32:28.155Z,20.31
2023-05-21T06:33:31.981Z,20.29
2023-05-21T06:34:35.164Z,20.28
2023-05-21T06:35:39.992Z,20.28
2023-05-21T06:36:43.523Z,20.29
2023-05-21T06:37:46.737Z,20.31
2023-05-21T06:38:49.566Z,20.31
2023-05-21T06:39:52.347Z,20.31
2023-05-21T06:40:55.223Z,20.32
2023-05-21T06:42:12.442Z,20.32
2023-05-21T06:43:35.524Z,20.34
2023-05-21T06:45:04.924Z,20.34
2023-05-21T06:46:13.527Z,20.35
2023-05-21T06:47:16.621Z,20.35
2023-05-21T06:48:19.699Z,20.37
2023-05-21T06:49:23.649Z,20.39
2023-05-21T06:50:27.963Z,20.40
2023-05-21T06:51:31.236Z,20.41
2023-05-21T06:52:34.214Z,20.42
2023-05-21T06:53:37.506Z,20.44
2023-05-21T06:54:40.720Z,20.46
2023-05-21T06:55:46.515Z,20.49
2023-05-21T06:56:57.083Z,20.51
2023-05-21T06:58:00.317Z,20.53
2023-05-21T06:59:03.160Z,20.54
2023-05-21T07:00:06.411Z,20.56
2023-05-21T07:01:10.144Z,20.58
2023-05-21T07:02:13.072Z,20.58
2023-05-21T07:03:16.301Z,20.59
2023-05-21T07:04:19.372Z,20.61
2023-05-21T07:05:22.177Z,20.62
2023-05-21T07:06:24.973Z,20.64
2023-05-21T07:07:28.478Z,20.74
2023-05-21T07:08:31.393Z,20.86
2023-05-21T07:09:34.734Z,21.01
2023-05-21T07:10:37.672Z,21.14
2023-05-21T07:11:41.785Z,21.27
2023-05-21T07:12:44.946Z,21.38
2023-05-21T07:13:48.140Z,21.47
2023-05-21T07:14:51.658Z,21.53
2023-05-21T07:15:54.427Z,21.61
2023-05-21T07:16:57.348Z,21.66
2023-05-21T07:18:00.440Z,21.70
2023-05-21T07:19:03.332Z,21.70
2023-05-21T07:20:07.806Z,21.64
2023-05-21T07:21:11.433Z,21.54
2023-05-21T07:22:14.580Z,21.45
2023-05-21T07:23:18.005Z,21.36
2023-05-21T07:24:21.936Z,21.27
2023-05-21T07:25:24.981Z,21.20
2023-05-21T07:26:27.861Z,21.13
2023-05-21T07:27:30.820Z,21.08
2023-05-21T07:28:33.556Z,21.03
2023-05-21T07:29:37.012Z,21.00
2023-05-21T07:30:39.888Z,20.96
2023-05-21T07:31:45.952Z,20.93
2023-05-21T07:32:48.938Z,20.91
2023-05-21T07:33:51.804Z,20.88
2023-05-21T07:34:56.842Z,20.86
2023-05-21T07:36:00.988Z,20.82
2023-05-21T07:37:04.978Z,20.78
2023-05-21T07:38:07.819Z,20.76
2023-05-21T07:39:10.650Z,20.74
2023-05-21T07:40:14.066Z,20.70
2023-05-21T07:41:18.821Z,20.68
2023-05-21T07:42:22.636Z,20.66
2023-05-21T07:43:25.460Z,20.65
2023-05-21T07:44:28.257Z,20.63
2023-05-21T07:45:31.081Z,20.62
2023-05-21T07:46:34.743Z,20.62
2023-05-21T07:47:37.673Z,20.62
2023-05-21T07:48:41.832Z,20.61
2023-05-21T07:49:44.609Z,20.62
2023-05-21T07:50:49.719Z,20.64
2023-05-21T07:51:52.561Z,20.65
2023-05-21T07:52:55.841Z,20.65
2023-05-21T07:53:58.751Z,20.65
2023-05-21T07:55:08.966Z,20.66
2023-05-21T07:56:12.032Z,20.68
2023-05-21T07:57:15.043Z,20.69
2023-05-21T07:58:26.849Z,20.70
2023-05-21T07:59:30.516Z,20.71
2023-05-21T08:00:42.144Z,20.70
2023-05-21T08:01:44.951Z,20.69
2023-05-21T08:02:48.095Z,20.69
2023-05-21T08:03:51.507Z,20.70
2023-05-21T08:04:55.225Z,20.72
2023-05-21T08:05:58.333Z,20.74
2023-05-21T08:07:01.209Z,20.76
2023-05-21T08:08:05.196Z,20.77
2023-05-21T08:09:08.572Z,20.79
2023-05-21T08:10:11.729Z,20.81
2023-05-21T08:11:15.802Z,20.84
2023-05-21T08:12:19.809Z,20.87
2023-05-21T08:13:22.771Z,20.91
2023-05-21T08:14:26.159Z,20.96
2023-05-21T08:15:29.329Z,21.02
2023-05-21T08:16:32.168Z,21.04
2023-05-21T08:17:35.058Z,21.06
2023-05-21T08:18:37.833Z,21.09
2023-05-21T08:19:42.062Z,21.09
2023-05-21T08:20:45.348Z,21.10
2023-05-21T08:21:48.965Z,21.12
2023-05-21T08:22:53.611Z,21.13
2023-05-21T08:23:57.253Z,21.13
2023-05-21T08:25:01.905Z,21.14
2023-05-21T08:26:04.769Z,21.14
2023-05-21T08:27:07.862Z,21.13
2023-05-21T08:28:10.619Z,21.12
2023-05-21T08:29:13.348Z,21.13
2023-05-21T08:30:16.479Z,21.14
2023-05-21T08:31:20.386Z,21.14
2023-05-21T08:32:23.480Z,21.16
2023-05-21T08:33:26.522Z,21.17
2023-05-21T08:34:29.476Z,21.17
2023-05-21T08:35:43.830Z,21.17
2023-05-21T08:36:57.138Z,21.18
2023-05-21T08:38:22.577Z,21.20
2023-05-21T08:39:36.117Z,21.22
2023-05-21T08:40:39.096Z,21.25
2023-05-21T08:41:46.631Z,21.28
2023-05-21T08:42:49.633Z,21.32
2023-05-21T08:43:57.791Z,21.35
2023-05-21T08:45:04.853Z,21.38
2023-05-21T08:46:09.590Z,21.39
2023-05-21T08:47:16.599Z,21.41
2023-05-21T08:48:19.959Z,21.42
2023-05-21T08:49:27.471Z,21.43
2023-05-21T08:50:31.568Z,21.46
2023-05-21T08:51:36.332Z,21.46
2023-05-21T08:52:39.256Z,21.45
2023-05-21T08:53:42.438Z,21.44
2023-05-21T08:54:46.396Z,21.43
2023-05-21T08:55:52.583Z,21.43
2023-05-21T08:56:56.668Z,21.42
2023-05-21T08:58:01.606Z,21.41
2023-05-21T08:59:04.606Z,21.39
2023-05-21T09:00:11.362Z,21.37
2023-05-21T09:01:14.494Z,21.34
2023-05-21T09:02:21.801Z,21.32
2023-05-21T09:03:25.274Z,21.32
2023-05-21T09:04:28.746Z,21.33
2023-05-21T09:05:31.731Z,21.34
2023-05-21T09:06:34.539Z,21.37
2023-05-21T09:07:44.570Z,21.38
2023-05-21T09:09:17.598Z,21.38
2023-05-21T09:10:27.409Z,21.36
2023-05-21T09:11:30.399Z,21.33
2023-05-21T09:12:34.819Z,21.30
2023-05-21T09:13:39.143Z,21.28
2023-05-21T09:14:47.280Z,21.27
2023-05-21T09:15:55.943Z,21.29
2023-05-21T09:17:00.059Z,21.29
2023-05-21T09:18:10.180Z,21.26
2023-05-21T09:19:22.418Z,21.20
2023-05-21T09:20:26.520Z,21.14
2023-05-21T09:21:33.337Z,21.09
2023-05-21T09:22:43.221Z,21.06
2023-05-21T09:23:46.006Z,21.05
2023-05-21T09:24:51.660Z,21.05
2023-05-21T09:25:54.733Z,21.05
2023-05-21T09:27:02.513Z,21.06
2023-05-21T09:28:11.648Z,21.07
2023-05-21T09:29:16.266Z,21.09
2023-05-21T09:30:34.848Z,21.10
2023-05-21T09:31:43.347Z,21.11
2023-05-21T09:32:53.111Z,21.14
2023-05-21T09:33:56.441Z,21.12
2023-05-21T09:35:12.922Z,21.10
2023-05-21T09:36:17.764Z,21.09
2023-05-21T09:38:30.317Z,21.06
2023-05-21T09:39:33.623Z,21.06
2023-05-21T09:40:43.834Z,21.05
2023-05-21T09:41:46.749Z,21.03
2023-05-21T09:42:51.237Z,21.03
2023-05-21T09:43:58.617Z,21.01
2023-05-21T09:45:02.040Z,21.01
2023-05-21T09:46:06.403Z,21.00
2023-05-21T09:47:09.713Z,20.98
2023-05-21T09:48:12.789Z,20.97
2023-05-21T09:49:23.586Z,20.97
2023-05-21T09:50:31.656Z,20.98
2023-05-21T09:51:39.498Z,20.98
2023-05-21T09:52:42.456Z,20.97
2023-05-21T09:54:01.211Z,20.98
2023-05-21T09:55:05.575Z,21.02
2023-05-21T09:56:09.217Z,21.06
2023-05-21T09:57:14.350Z,21.08
2023-05-21T09:58:17.189Z,21.11
2023-05-21T09:59:20.614Z,21.13
2023-05-21T10:00:24.387Z,21.15
2023-05-21T10:01:28.170Z,21.19
2023-05-21T10:02:31.692Z,21.23
2023-05-21T10:03:38.959Z,21.25
2023-05-21T10:04:42.748Z,21.27
2023-05-21T10:05:45.737Z,21.27
2023-05-21T10:06:50.019Z,21.30
2023-05-21T10:07:54.433Z,21.32
2023-05-21T10:08:59.499Z,21.34
2023-05-21T10:10:03.901Z,21.34
2023-05-21T10:11:06.994Z,21.35
2023-05-21T10:12:10.904Z,21.34
2023-05-21T10:13:15.016Z,21.33
2023-05-21T10:14:20.248Z,21.32
2023-05-21T10:15:24.250Z,21.30
2023-05-21T10:16:27.259Z,21.31
2023-05-21T10:17:30.821Z,21.31
2023-05-21T10:18:35.073Z,21.30
2023-05-21T10:19:38.972Z,21.30
2023-05-21T10:20:42.594Z,21.31
2023-05-21T10:21:45.923Z,21.32
2023-05-21T10:22:50.602Z,21.30
2023-05-21T10:23:56.513Z,21.29
2023-05-21T10:24:59.447Z,21.28
2023-05-21T10:26:03.169Z,21.30
2023-05-21T10:27:07.183Z,21.32
2023-05-21T10:28:10.275Z,21.34
2023-05-21T10:29:17.452Z,21.34
2023-05-21T10:30:23.381Z,21.34
2023-05-21T10:31:26.760Z,21.33
2023-05-21T10:32:30.449Z,21.32
2023-05-21T10:33:35.900Z,21.29
2023-05-21T10:34:38.891Z,21.27
2023-05-21T10:35:42.160Z,21.27
2023-05-21T10:36:46.227Z,21.30
2023-05-21T10:37:49.774Z,21.33
2023-05-21T10:38:53.273Z,21.33
2023-05-21T10:39:56.850Z,21.34
2023-05-21T10:41:00.733Z,21.36
2023-05-21T10:42:03.697Z,21.39
2023-05-21T10:43:18.433Z,21.44
2023-05-21T10:44:40.048Z,21.49
2023-05-21T10:45:52.075Z,21.51
2023-05-21T10:47:13.428Z,21.52
2023-05-21T10:48:23.781Z,21.53
2023-05-21T10:49:34.306Z,21.53
2023-05-21T10:50:57.416Z,21.53
2023-05-21T10:52:19.106Z,21.54
2023-05-21T10:53:40.604Z,21.59
2023-05-21T10:55:03.792Z,21.67
2023-05-21T10:56:25.448Z,21.74
2023-05-21T10:57:46.673Z,21.81
2023-05-21T10:59:07.874Z,21.86
2023-05-21T11:00:12.689Z,21.90
2023-05-21T11:01:16.604Z,21.93
2023-05-21T11:02:20.053Z,21.98
2023-05-21T11:03:23.200Z,22.03
2023-05-21T11:04:27.039Z,22.11
2023-05-21T11:05:41.365Z,22.18
2023-05-21T11:06:48.198Z,22.29
2023-05-21T11:07:56.505Z,22.37
2023-05-21T11:09:12.691Z,22.46
2023-05-21T11:10:34.228Z,22.58
2023-05-21T11:11:43.564Z,22.68
2023-05-21T11:13:06.056Z,22.74
2023-05-21T11:14:28.150Z,22.87
2023-05-21T11:15:31.062Z,23.16
2023-05-21T11:16:40.548Z,23.45
2023-05-21T11:17:44.656Z,23.76
2023-05-21T11:18:47.930Z,24.01
2023-05-21T11:19:51.671Z,24.21
2023-05-21T11:20:54.427Z,24.36
2023-05-21T11:21:57.331Z,24.48
2023-05-21T11:23:00.180Z,24.57
2023-05-21T11:24:18.521Z,24.64
2023-05-21T11:25:21.588Z,24.70
2023-05-21T11:26:31.029Z,24.76
2023-05-21T11:27:38.033Z,24.81
2023-05-21T11:28:41.481Z,24.88
2023-05-21T11:29:44.942Z,24.96
2023-05-21T11:31:07.727Z,25.03
2023-05-21T11:32:13.820Z,25.10
2023-05-21T11:33:19.910Z,25.13
2023-05-21T11:34:29.625Z,25.16
2023-05-21T11:35:36.171Z,25.19
2023-05-21T11:36:39.460Z,25.25
2023-05-21T11:37:43.737Z,25.32
2023-05-21T11:39:07.159Z,25.42
2023-05-21T11:40:16.747Z,25.59
2023-05-21T11:41:20.082Z,25.75
2023-05-21T11:42:30.527Z,25.83
2023-05-21T11:43:33.272Z,25.94
2023-05-21T11:44:48.238Z,26.03
2023-05-21T11:45:53.185Z,26.15
2023-05-21T11:46:56.589Z,26.18
2023-05-21T11:48:00.261Z,26.23
2023-05-21T11:49:03.796Z,26.33
2023-05-21T11:50:12.186Z,26.46
2023-05-21T11:51:15.226Z,26.60
2023-05-21T11:52:19.796Z,26.75
2023-05-21T11:53:22.599Z,26.90
2023-05-21T11:54:26.135Z,27.08
2023-05-21T11:55:29.010Z,27.20
2023-05-21T11:56:33.037Z,27.25
2023-05-21T11:57:35.842Z,27.30
2023-05-21T11:58:42.197Z,27.41
2023-05-21T11:59:47.571Z,27.48
2023-05-21T12:00:51.176Z,27.53
2023-05-21T12:01:55.261Z,27.62
2023-05-21T12:02:58.958Z,27.73
2023-05-21T12:04:04.385Z,27.85
2023-05-21T12:05:13.155Z,27.94
2023-05-21T12:06:20.302Z,28.04
2023-05-21T12:07:23.188Z,28.15
2023-05-21T12:08:27.196Z,28.24
2023-05-21T12:09:30.335Z,28.35
2023-05-21T12:10:37.711Z,28.43
2023-05-21T12:11:41.553Z,28.53
2023-05-21T12:12:54.899Z,28.60
2023-05-21T12:13:59.744Z,28.68
2023-05-21T12:15:02.679Z,28.69
2023-05-21T12:16:07.315Z,28.73
2023-05-21T12:17:10.698Z,28.73
2023-05-21T12:18:15.175Z,28.76
2023-05-21T12:19:19.334Z,28.84
2023-05-21T12:20:22.230Z,28.95
2023-05-21T12:21:27.191Z,29.14
2023-05-21T12:22:30.422Z,29.26
2023-05-21T12:23:33.482Z,29.36
2023-05-21T12:24:36.839Z,29.46
2023-05-21T12:25:40.740Z,29.52
2023-05-21T12:26:46.004Z,29.60
2023-05-21T12:27:52.892Z,29.70
2023-05-21T12:28:57.252Z,29.89
2023-05-21T12:30:00.643Z,30.04
2023-05-21T12:31:03.536Z,30.20
2023-05-21T12:32:08.948Z,30.30
2023-05-21T12:33:12.349Z,30.44
2023-05-21T12:34:18.683Z,30.68
2023-05-21T12:35:24.881Z,30.93
2023-05-21T12:36:27.995Z,31.20
2023-05-21T12:37:35.739Z,31.46
2023-05-21T12:38:38.960Z,31.70
2023-05-21T12:39:45.549Z,31.94
2023-05-21T12:40:48.441Z,32.17
2023-05-21T12:41:54.181Z,32.49
2023-05-21T12:42:57.067Z,32.74
2023-05-21T12:44:00.681Z,33.05
2023-05-21T12:45:07.041Z,33.31
2023-05-21T12:46:14.991Z,33.61
2023-05-21T12:47:18.431Z,33.90
2023-05-21T12:48:21.288Z,34.14
2023-05-21T12:49:55.401Z,34.36
2023-05-21T12:51:05.307Z,34.74
2023-05-21T12:53:07.360Z,35.12
2023-05-21T12:54:37.357Z,35.50
2023-05-21T12:55:44.974Z,35.59
2023-05-21T12:59:08.424Z,36.02
2023-05-21T13:00:32.466Z,36.12
2023-05-21T13:01:41.469Z,36.19
2023-05-21T13:02:47.539Z,36.36
2023-05-21T13:03:50.978Z,36.52
2023-05-21T13:05:01.116Z,36.45
2023-05-21T13:06:22.232Z,36.36
2023-05-21T13:07:37.905Z,36.29
2023-05-21T13:08:41.076Z,36.35
2023-05-21T13:09:46.293Z,36.49
2023-05-21T13:10:49.619Z,36.48
2023-05-21T13:11:55.051Z,36.27
2023-05-21T13:12:58.423Z,36.17
2023-05-21T13:14:01.716Z,36.09
2023-05-21T13:15:08.579Z,36.00
2023-05-21T13:16:11.629Z,35.97
2023-05-21T13:17:15.045Z,35.93
2023-05-21T13:18:18.136Z,35.90
2023-05-21T13:19:21.144Z,35.92
2023-05-21T13:20:28.054Z,36.03
2023-05-21T13:21:31.245Z,36.06
2023-05-21T13:22:35.423Z,36.23
2023-05-21T13:23:39.653Z,36.38
2023-05-21T13:31:11.634Z,36.41
2023-05-21T13:32:31.730Z,36.30
2023-05-21T13:35:12.594Z,36.13
2023-05-21T13:37:17.716Z,36.24
2023-05-21T13:38:22.210Z,36.37
2023-05-21T13:39:29.194Z,36.41
2023-05-21T13:40:38.719Z,36.33
2023-05-21T13:41:43.913Z,36.32
2023-05-21T13:42:47.759Z,36.35
2023-05-21T13:43:51.944Z,36.36
2023-05-21T13:44:54.711Z,36.31
2023-05-21T13:46:00.490Z,36.33
2023-05-21T13:47:03.804Z,36.36
2023-05-21T13:48:07.066Z,36.43
2023-05-21T13:49:10.114Z,36.52
2023-05-21T13:50:13.063Z,36.73
2023-05-21T13:51:30.808Z,36.70
2023-05-21T13:52:39.478Z,36.70
2023-05-21T13:53:42.445Z,36.78
2023-05-21T13:54:45.280Z,36.80
2023-05-21T13:55:48.083Z,36.83
2023-05-21T13:56:51.017Z,36.86
2023-05-21T13:57:53.863Z,36.83
2023-05-21T13:58:56.807Z,36.88
2023-05-21T14:00:00.849Z,36.92
2023-05-21T14:01:03.854Z,36.90
2023-05-21T14:02:08.888Z,36.87
2023-05-21T14:03:12.296Z,36.89
2023-05-21T14:04:15.395Z,36.96
2023-05-21T14:05:18.372Z,37.02
2023-05-21T14:06:21.257Z,37.08
2023-05-21T14:07:24.646Z,37.19
2023-05-21T14:08:29.407Z,37.30
2023-05-21T14:09:32.772Z,37.29
2023-05-21T14:10:35.937Z,37.20
2023-05-21T14:11:41.618Z,37.11